sensor_id;sensor_type;location;lat;lon;timestamp;P1;durP1;ratioP1;P2;durP2;ratioP2
75990;SDS011;64673;52.276;10.560;2022-11-15T00:00:01;13.45;;;6.22;;
75990;SDS011;64673;52.276;10.560;2022-11-15T00:02:26;13.25;;;5.95;;
75990;SDS011;64673;52.276;10.560;2022-11-15T00:04:51;11.82;;;5.65;;
75990;SDS011;64673;52.276;10.560;2022-11-15T00:07:17;12.60;;;6.05;;
75990;SDS011;64673;52.276;10.560;2022-11-15T00:09:42;12.95;;;6.00;;
75990;SDS011;64673;52.276;10.560;2022-11-15T00:12:07;12.32;;;5.93;;
75990;SDS011;64673;52.276;10.560;2022-11-15T00:14:33;15.32;;;6.40;;
75990;SDS011;64673;52.276;10.560;2022-11-15T00:16:58;14.43;;;6.75;;
75990;SDS011;64673;52.276;10.560;2022-11-15T00:19:23;12.82;;;6.82;;
75990;SDS011;64673;52.276;10.560;2022-11-15T00:21:49;13.02;;;6.00;;
75990;SDS011;64673;52.276;10.560;2022-11-15T00:24:14;12.90;;;6.05;;
75990;SDS011;64673;52.276;10.560;2022-11-15T00:26:39;13.73;;;6.57;;
75990;SDS011;64673;52.276;10.560;2022-11-15T00:29:05;13.77;;;6.63;;
75990;SDS011;64673;52.276;10.560;2022-11-15T00:31:30;13.02;;;5.90;;
75990;SDS011;64673;52.276;10.560;2022-11-15T00:33:55;14.93;;;6.72;;
75990;SDS011;64673;52.276;10.560;2022-11-15T00:36:21;16.65;;;6.72;;
75990;SDS011;64673;52.276;10.560;2022-11-15T00:38:46;16.42;;;7.40;;
75990;SDS011;64673;52.276;10.560;2022-11-15T00:41:11;12.55;;;6.28;;
75990;SDS011;64673;52.276;10.560;2022-11-15T00:43:37;12.73;;;5.70;;
75990;SDS011;64673;52.276;10.560;2022-11-15T00:46:05;12.45;;;6.22;;
75990;SDS011;64673;52.276;10.560;2022-11-15T00:48:33;13.85;;;5.90;;
75990;SDS011;64673;52.276;10.560;2022-11-15T00:50:58;15.15;;;6.65;;
75990;SDS011;64673;52.276;10.560;2022-11-15T00:53:23;14.00;;;6.00;;
75990;SDS011;64673;52.276;10.560;2022-11-15T00:55:49;13.57;;;6.70;;
75990;SDS011;64673;52.276;10.560;2022-11-15T00:58:14;13.70;;;6.03;;
75990;SDS011;64673;52.276;10.560;2022-11-15T01:00:39;12.85;;;6.32;;
75990;SDS011;64673;52.276;10.560;2022-11-15T01:03:05;12.73;;;6.68;;
75990;SDS011;64673;52.276;10.560;2022-11-15T01:05:30;13.45;;;5.80;;
75990;SDS011;64673;52.276;10.560;2022-11-15T01:07:55;12.68;;;5.55;;
75990;SDS011;64673;52.276;10.560;2022-11-15T01:10:21;16.85;;;6.60;;
75990;SDS011;64673;52.276;10.560;2022-11-15T01:12:48;13.68;;;6.05;;
75990;SDS011;64673;52.276;10.560;2022-11-15T01:15:14;16.63;;;7.10;;
75990;SDS011;64673;52.276;10.560;2022-11-15T01:17:39;12.75;;;6.05;;
75990;SDS011;64673;52.276;10.560;2022-11-15T01:20:05;15.38;;;6.75;;
75990;SDS011;64673;52.276;10.560;2022-11-15T01:22:31;15.68;;;7.07;;
75990;SDS011;64673;52.276;10.560;2022-11-15T01:24:56;14.68;;;6.75;;
75990;SDS011;64673;52.276;10.560;2022-11-15T01:27:21;15.25;;;7.35;;
75990;SDS011;64673;52.276;10.560;2022-11-15T01:29:47;14.85;;;7.05;;
75990;SDS011;64673;52.276;10.560;2022-11-15T01:32:12;16.23;;;6.90;;
75990;SDS011;64673;52.276;10.560;2022-11-15T01:34:38;16.25;;;6.95;;
75990;SDS011;64673;52.276;10.560;2022-11-15T01:37:03;14.18;;;6.75;;
75990;SDS011;64673;52.276;10.560;2022-11-15T01:39:28;15.60;;;6.80;;
75990;SDS011;64673;52.276;10.560;2022-11-15T01:41:55;14.52;;;6.30;;
75990;SDS011;64673;52.276;10.560;2022-11-15T01:46:55;15.63;;;7.25;;
75990;SDS011;64673;52.276;10.560;2022-11-15T01:49:21;13.27;;;6.57;;
75990;SDS011;64673;52.276;10.560;2022-11-15T01:51:48;13.35;;;6.57;;
75990;SDS011;64673;52.276;10.560;2022-11-15T01:54:15;16.02;;;7.03;;
75990;SDS011;64673;52.276;10.560;2022-11-15T01:56:55;16.75;;;7.05;;
75990;SDS011;64673;52.276;10.560;2022-11-15T01:59:26;18.40;;;7.70;;
75990;SDS011;64673;52.276;10.560;2022-11-15T02:01:52;16.33;;;7.43;;
75990;SDS011;64673;52.276;10.560;2022-11-15T02:04:27;15.02;;;7.28;;
75990;SDS011;64673;52.276;10.560;2022-11-15T02:06:55;17.17;;;7.50;;
75990;SDS011;64673;52.276;10.560;2022-11-15T02:09:20;17.48;;;7.78;;
75990;SDS011;64673;52.276;10.560;2022-11-15T02:11:46;16.15;;;7.72;;
75990;SDS011;64673;52.276;10.560;2022-11-15T02:14:12;19.30;;;6.97;;
75990;SDS011;64673;52.276;10.560;2022-11-15T02:36:00;15.18;;;6.55;;
75990;SDS011;64673;52.276;10.560;2022-11-15T02:40:59;16.88;;;7.28;;
75990;SDS011;64673;52.276;10.560;2022-11-15T02:43:32;12.40;;;6.15;;
75990;SDS011;64673;52.276;10.560;2022-11-15T02:51:56;17.08;;;6.97;;
75990;SDS011;64673;52.276;10.560;2022-11-15T02:54:22;13.02;;;6.72;;
75990;SDS011;64673;52.276;10.560;2022-11-15T02:56:54;16.58;;;6.68;;
75990;SDS011;64673;52.276;10.560;2022-11-15T03:02:18;16.73;;;7.93;;
75990;SDS011;64673;52.276;10.560;2022-11-15T03:07:37;15.02;;;7.18;;
75990;SDS011;64673;52.276;10.560;2022-11-15T03:10:15;14.43;;;7.38;;
75990;SDS011;64673;52.276;10.560;2022-11-15T03:12:55;17.30;;;7.15;;
75990;SDS011;64673;52.276;10.560;2022-11-15T03:15:29;15.27;;;6.65;;
75990;SDS011;64673;52.276;10.560;2022-11-15T03:17:55;13.60;;;6.68;;
75990;SDS011;64673;52.276;10.560;2022-11-15T03:20:25;14.45;;;6.70;;
75990;SDS011;64673;52.276;10.560;2022-11-15T03:22:52;15.10;;;6.88;;
75990;SDS011;64673;52.276;10.560;2022-11-15T03:25:22;12.50;;;5.65;;
75990;SDS011;64673;52.276;10.560;2022-11-15T03:27:51;13.65;;;6.50;;
75990;SDS011;64673;52.276;10.560;2022-11-15T03:30:24;13.48;;;6.30;;
75990;SDS011;64673;52.276;10.560;2022-11-15T03:32:51;11.55;;;5.88;;
75990;SDS011;64673;52.276;10.560;2022-11-15T03:35:21;14.60;;;5.97;;
75990;SDS011;64673;52.276;10.560;2022-11-15T03:37:54;14.52;;;5.93;;
75990;SDS011;64673;52.276;10.560;2022-11-15T03:40:36;17.15;;;6.15;;
75990;SDS011;64673;52.276;10.560;2022-11-15T03:43:46;12.02;;;6.07;;
75990;SDS011;64673;52.276;10.560;2022-11-15T03:45:51;12.57;;;5.82;;
75990;SDS011;64673;52.276;10.560;2022-11-15T03:48:26;10.95;;;5.03;;
75990;SDS011;64673;52.276;10.560;2022-11-15T03:50:58;12.88;;;5.32;;
75990;SDS011;64673;52.276;10.560;2022-11-15T03:53:24;12.32;;;6.03;;
75990;SDS011;64673;52.276;10.560;2022-11-15T03:55:50;12.70;;;6.13;;
75990;SDS011;64673;52.276;10.560;2022-11-15T03:58:15;11.65;;;5.43;;
75990;SDS011;64673;52.276;10.560;2022-11-15T04:00:40;13.23;;;5.15;;
75990;SDS011;64673;52.276;10.560;2022-11-15T04:03:06;11.77;;;5.60;;
75990;SDS011;64673;52.276;10.560;2022-11-15T04:05:34;10.20;;;5.00;;
75990;SDS011;64673;52.276;10.560;2022-11-15T04:07:59;9.60;;;5.13;;
75990;SDS011;64673;52.276;10.560;2022-11-15T04:10:24;11.70;;;5.88;;
75990;SDS011;64673;52.276;10.560;2022-11-15T04:12:50;9.20;;;5.10;;
75990;SDS011;64673;52.276;10.560;2022-11-15T04:15:20;9.40;;;5.15;;
75990;SDS011;64673;52.276;10.560;2022-11-15T04:17:48;12.88;;;5.55;;
75990;SDS011;64673;52.276;10.560;2022-11-15T04:23:16;11.85;;;5.13;;
75990;SDS011;64673;52.276;10.560;2022-11-15T04:26:05;10.02;;;5.07;;
75990;SDS011;64673;52.276;10.560;2022-11-15T04:28:33;12.63;;;4.95;;
75990;SDS011;64673;52.276;10.560;2022-11-15T04:30:58;10.57;;;5.28;;
75990;SDS011;64673;52.276;10.560;2022-11-15T04:33:24;12.10;;;6.00;;
75990;SDS011;64673;52.276;10.560;2022-11-15T04:35:50;15.25;;;6.60;;
75990;SDS011;64673;52.276;10.560;2022-11-15T04:38:35;12.40;;;5.82;;
75990;SDS011;64673;52.276;10.560;2022-11-15T04:41:02;11.75;;;5.93;;
75990;SDS011;64673;52.276;10.560;2022-11-15T04:43:28;14.75;;;6.03;;
75990;SDS011;64673;52.276;10.560;2022-11-15T04:45:53;11.38;;;6.00;;
75990;SDS011;64673;52.276;10.560;2022-11-15T04:48:19;12.50;;;6.15;;
75990;SDS011;64673;52.276;10.560;2022-11-15T04:50:44;11.93;;;6.10;;
75990;SDS011;64673;52.276;10.560;2022-11-15T04:53:09;11.10;;;6.00;;
75990;SDS011;64673;52.276;10.560;2022-11-15T04:55:35;12.02;;;5.93;;
75990;SDS011;64673;52.276;10.560;2022-11-15T04:58:01;13.20;;;6.18;;
75990;SDS011;64673;52.276;10.560;2022-11-15T05:00:27;13.57;;;6.13;;
75990;SDS011;64673;52.276;10.560;2022-11-15T05:02:54;14.05;;;6.57;;
75990;SDS011;64673;52.276;10.560;2022-11-15T05:05:38;10.95;;;5.80;;
75990;SDS011;64673;52.276;10.560;2022-11-15T05:08:03;13.50;;;6.25;;
75990;SDS011;64673;52.276;10.560;2022-11-15T05:10:29;16.40;;;6.30;;
75990;SDS011;64673;52.276;10.560;2022-11-15T05:12:54;12.38;;;5.95;;
75990;SDS011;64673;52.276;10.560;2022-11-15T05:15:19;10.60;;;5.85;;
75990;SDS011;64673;52.276;10.560;2022-11-15T05:17:45;14.00;;;5.72;;
75990;SDS011;64673;52.276;10.560;2022-11-15T05:20:10;12.23;;;5.65;;
75990;SDS011;64673;52.276;10.560;2022-11-15T05:22:36;11.45;;;5.97;;
75990;SDS011;64673;52.276;10.560;2022-11-15T05:25:02;10.88;;;5.47;;
75990;SDS011;64673;52.276;10.560;2022-11-15T05:27:28;11.70;;;5.40;;
75990;SDS011;64673;52.276;10.560;2022-11-15T05:29:53;11.93;;;5.68;;
75990;SDS011;64673;52.276;10.560;2022-11-15T05:32:19;13.13;;;5.90;;
75990;SDS011;64673;52.276;10.560;2022-11-15T05:34:45;10.52;;;5.88;;
75990;SDS011;64673;52.276;10.560;2022-11-15T05:37:11;10.55;;;5.38;;
75990;SDS011;64673;52.276;10.560;2022-11-15T05:39:37;12.20;;;5.60;;
75990;SDS011;64673;52.276;10.560;2022-11-15T05:42:09;10.85;;;5.60;;
75990;SDS011;64673;52.276;10.560;2022-11-15T05:44:37;10.35;;;5.57;;
75990;SDS011;64673;52.276;10.560;2022-11-15T05:47:05;12.05;;;5.70;;
75990;SDS011;64673;52.276;10.560;2022-11-15T05:49:34;11.15;;;5.25;;
75990;SDS011;64673;52.276;10.560;2022-11-15T05:52:04;10.05;;;5.50;;
75990;SDS011;64673;52.276;10.560;2022-11-15T05:54:32;11.07;;;5.47;;
75990;SDS011;64673;52.276;10.560;2022-11-15T05:56:58;13.10;;;5.75;;
75990;SDS011;64673;52.276;10.560;2022-11-15T05:59:25;11.30;;;5.45;;
75990;SDS011;64673;52.276;10.560;2022-11-15T06:01:50;10.63;;;5.40;;
75990;SDS011;64673;52.276;10.560;2022-11-15T06:04:16;13.25;;;5.65;;
75990;SDS011;64673;52.276;10.560;2022-11-15T06:06:41;9.32;;;5.25;;
75990;SDS011;64673;52.276;10.560;2022-11-15T06:09:06;14.07;;;5.93;;
75990;SDS011;64673;52.276;10.560;2022-11-15T06:11:32;11.50;;;5.70;;
75990;SDS011;64673;52.276;10.560;2022-11-15T06:13:57;14.32;;;6.32;;
75990;SDS011;64673;52.276;10.560;2022-11-15T06:16:22;14.48;;;6.40;;
75990;SDS011;64673;52.276;10.560;2022-11-15T06:18:48;12.88;;;6.20;;
75990;SDS011;64673;52.276;10.560;2022-11-15T06:21:13;13.00;;;6.03;;
75990;SDS011;64673;52.276;10.560;2022-11-15T06:23:38;13.80;;;5.70;;
75990;SDS011;64673;52.276;10.560;2022-11-15T06:26:04;16.50;;;7.13;;
75990;SDS011;64673;52.276;10.560;2022-11-15T06:28:29;11.45;;;6.15;;
75990;SDS011;64673;52.276;10.560;2022-11-15T06:31:05;11.02;;;5.70;;
75990;SDS011;64673;52.276;10.560;2022-11-15T06:33:32;12.07;;;6.43;;
75990;SDS011;64673;52.276;10.560;2022-11-15T06:36:01;13.25;;;5.93;;
75990;SDS011;64673;52.276;10.560;2022-11-15T06:38:27;20.80;;;10.02;;
75990;SDS011;64673;52.276;10.560;2022-11-15T06:40:53;18.30;;;9.23;;
75990;SDS011;64673;52.276;10.560;2022-11-15T06:43:18;14.10;;;8.30;;
75990;SDS011;64673;52.276;10.560;2022-11-15T06:45:43;14.88;;;8.23;;
75990;SDS011;64673;52.276;10.560;2022-11-15T06:48:08;16.10;;;8.15;;
75990;SDS011;64673;52.276;10.560;2022-11-15T06:50:34;20.02;;;10.15;;
75990;SDS011;64673;52.276;10.560;2022-11-15T06:53:05;22.13;;;11.32;;
75990;SDS011;64673;52.276;10.560;2022-11-15T06:55:30;20.92;;;11.10;;
75990;SDS011;64673;52.276;10.560;2022-11-15T06:57:56;18.00;;;9.70;;
75990;SDS011;64673;52.276;10.560;2022-11-15T07:00:21;18.10;;;7.95;;
75990;SDS011;64673;52.276;10.560;2022-11-15T07:02:47;14.10;;;7.93;;
75990;SDS011;64673;52.276;10.560;2022-11-15T07:05:13;14.82;;;7.13;;
75990;SDS011;64673;52.276;10.560;2022-11-15T07:07:39;15.02;;;7.25;;
75990;SDS011;64673;52.276;10.560;2022-11-15T07:10:05;14.55;;;7.45;;
75990;SDS011;64673;52.276;10.560;2022-11-15T07:12:31;15.75;;;8.00;;
75990;SDS011;64673;52.276;10.560;2022-11-15T07:14:57;14.60;;;7.47;;
75990;SDS011;64673;52.276;10.560;2022-11-15T07:17:22;14.75;;;7.38;;
75990;SDS011;64673;52.276;10.560;2022-11-15T07:19:48;12.40;;;6.07;;
75990;SDS011;64673;52.276;10.560;2022-11-15T07:22:13;13.27;;;6.68;;
75990;SDS011;64673;52.276;10.560;2022-11-15T07:24:38;13.30;;;6.00;;
75990;SDS011;64673;52.276;10.560;2022-11-15T07:27:04;11.98;;;6.03;;
75990;SDS011;64673;52.276;10.560;2022-11-15T07:29:29;13.13;;;6.28;;
75990;SDS011;64673;52.276;10.560;2022-11-15T07:31:54;12.85;;;6.45;;
75990;SDS011;64673;52.276;10.560;2022-11-15T07:34:20;16.00;;;7.50;;
75990;SDS011;64673;52.276;10.560;2022-11-15T07:36:45;13.85;;;7.05;;
75990;SDS011;64673;52.276;10.560;2022-11-15T07:39:10;14.05;;;7.00;;
75990;SDS011;64673;52.276;10.560;2022-11-15T07:41:37;14.93;;;7.25;;
75990;SDS011;64673;52.276;10.560;2022-11-15T07:44:03;12.77;;;6.78;;
75990;SDS011;64673;52.276;10.560;2022-11-15T07:46:28;15.20;;;6.40;;
75990;SDS011;64673;52.276;10.560;2022-11-15T07:48:54;12.93;;;6.53;;
75990;SDS011;64673;52.276;10.560;2022-11-15T07:51:19;14.25;;;6.78;;
75990;SDS011;64673;52.276;10.560;2022-11-15T07:53:45;11.35;;;5.88;;
75990;SDS011;64673;52.276;10.560;2022-11-15T07:56:10;15.32;;;6.93;;
75990;SDS011;64673;52.276;10.560;2022-11-15T07:58:36;13.32;;;6.47;;
75990;SDS011;64673;52.276;10.560;2022-11-15T08:01:02;13.00;;;6.32;;
75990;SDS011;64673;52.276;10.560;2022-11-15T08:03:29;10.82;;;5.57;;
75990;SDS011;64673;52.276;10.560;2022-11-15T08:05:54;10.82;;;5.47;;
75990;SDS011;64673;52.276;10.560;2022-11-15T08:08:19;11.07;;;5.65;;
75990;SDS011;64673;52.276;10.560;2022-11-15T08:10:45;14.60;;;6.60;;
75990;SDS011;64673;52.276;10.560;2022-11-15T08:13:11;12.10;;;5.47;;
75990;SDS011;64673;52.276;10.560;2022-11-15T08:15:37;12.90;;;5.63;;
75990;SDS011;64673;52.276;10.560;2022-11-15T08:18:05;11.63;;;4.75;;
75990;SDS011;64673;52.276;10.560;2022-11-15T08:20:34;11.70;;;5.28;;
75990;SDS011;64673;52.276;10.560;2022-11-15T08:23:00;9.88;;;5.10;;
75990;SDS011;64673;52.276;10.560;2022-11-15T08:25:27;10.35;;;5.00;;
75990;SDS011;64673;52.276;10.560;2022-11-15T08:27:53;10.52;;;5.45;;
75990;SDS011;64673;52.276;10.560;2022-11-15T08:30:20;9.65;;;4.95;;
75990;SDS011;64673;52.276;10.560;2022-11-15T08:32:45;9.70;;;4.80;;
75990;SDS011;64673;52.276;10.560;2022-11-15T08:35:12;12.05;;;4.97;;
75990;SDS011;64673;52.276;10.560;2022-11-15T08:37:38;9.75;;;4.85;;
75990;SDS011;64673;52.276;10.560;2022-11-15T08:40:03;8.30;;;4.40;;
75990;SDS011;64673;52.276;10.560;2022-11-15T08:42:29;9.13;;;4.53;;
75990;SDS011;64673;52.276;10.560;2022-11-15T08:44:55;9.23;;;4.72;;
75990;SDS011;64673;52.276;10.560;2022-11-15T08:47:20;8.90;;;4.90;;
75990;SDS011;64673;52.276;10.560;2022-11-15T08:49:45;12.35;;;5.85;;
75990;SDS011;64673;52.276;10.560;2022-11-15T08:52:11;11.25;;;5.65;;
75990;SDS011;64673;52.276;10.560;2022-11-15T08:54:36;8.13;;;4.90;;
75990;SDS011;64673;52.276;10.560;2022-11-15T08:57:02;11.68;;;4.97;;
75990;SDS011;64673;52.276;10.560;2022-11-15T08:59:27;8.00;;;4.45;;
75990;SDS011;64673;52.276;10.560;2022-11-15T09:01:53;7.55;;;4.30;;
75990;SDS011;64673;52.276;10.560;2022-11-15T09:04:18;8.00;;;4.70;;
75990;SDS011;64673;52.276;10.560;2022-11-15T09:06:43;8.40;;;4.38;;
75990;SDS011;64673;52.276;10.560;2022-11-15T09:09:09;8.32;;;4.00;;
75990;SDS011;64673;52.276;10.560;2022-11-15T09:11:34;9.50;;;4.00;;
75990;SDS011;64673;52.276;10.560;2022-11-15T09:13:59;10.43;;;4.72;;
75990;SDS011;64673;52.276;10.560;2022-11-15T09:16:25;8.45;;;4.63;;
75990;SDS011;64673;52.276;10.560;2022-11-15T09:18:50;11.60;;;5.28;;
75990;SDS011;64673;52.276;10.560;2022-11-15T09:21:17;11.80;;;5.30;;
75990;SDS011;64673;52.276;10.560;2022-11-15T09:23:42;11.43;;;4.72;;
75990;SDS011;64673;52.276;10.560;2022-11-15T09:26:07;9.50;;;4.60;;
75990;SDS011;64673;52.276;10.560;2022-11-15T09:28:33;10.25;;;4.63;;
75990;SDS011;64673;52.276;10.560;2022-11-15T09:31:00;11.45;;;4.60;;
75990;SDS011;64673;52.276;10.560;2022-11-15T09:33:28;7.68;;;4.07;;
75990;SDS011;64673;52.276;10.560;2022-11-15T09:35:54;8.52;;;4.25;;
75990;SDS011;64673;52.276;10.560;2022-11-15T09:38:20;12.65;;;4.45;;
75990;SDS011;64673;52.276;10.560;2022-11-15T09:40:47;10.43;;;4.32;;
75990;SDS011;64673;52.276;10.560;2022-11-15T09:43:26;7.22;;;4.00;;
75990;SDS011;64673;52.276;10.560;2022-11-15T09:49:00;8.82;;;4.47;;
75990;SDS011;64673;52.276;10.560;2022-11-15T09:51:37;10.18;;;4.78;;
75990;SDS011;64673;52.276;10.560;2022-11-15T09:54:20;7.20;;;3.88;;
75990;SDS011;64673;52.276;10.560;2022-11-15T09:56:52;10.25;;;4.20;;
75990;SDS011;64673;52.276;10.560;2022-11-15T09:59:40;6.85;;;3.58;;
75990;SDS011;64673;52.276;10.560;2022-11-15T10:02:31;6.78;;;3.70;;
75990;SDS011;64673;52.276;10.560;2022-11-15T10:05:18;6.78;;;3.53;;
75990;SDS011;64673;52.276;10.560;2022-11-15T10:10:49;8.02;;;4.25;;
75990;SDS011;64673;52.276;10.560;2022-11-15T10:13:22;7.20;;;4.45;;
75990;SDS011;64673;52.276;10.560;2022-11-15T10:15:49;7.63;;;3.90;;
75990;SDS011;64673;52.276;10.560;2022-11-15T10:21:35;8.05;;;3.80;;
75990;SDS011;64673;52.276;10.560;2022-11-15T10:24:07;6.30;;;3.55;;
75990;SDS011;64673;52.276;10.560;2022-11-15T10:26:36;7.72;;;3.97;;
75990;SDS011;64673;52.276;10.560;2022-11-15T10:29:02;6.03;;;3.20;;
75990;SDS011;64673;52.276;10.560;2022-11-15T10:31:28;6.55;;;3.80;;
75990;SDS011;64673;52.276;10.560;2022-11-15T10:34:10;9.25;;;3.55;;
75990;SDS011;64673;52.276;10.560;2022-11-15T10:36:39;5.50;;;3.20;;
75990;SDS011;64673;52.276;10.560;2022-11-15T10:39:11;6.20;;;3.65;;
75990;SDS011;64673;52.276;10.560;2022-11-15T10:41:38;6.18;;;3.40;;
75990;SDS011;64673;52.276;10.560;2022-11-15T10:46:31;5.70;;;3.10;;
75990;SDS011;64673;52.276;10.560;2022-11-15T10:54:28;4.60;;;2.75;;
75990;SDS011;64673;52.276;10.560;2022-11-15T10:56:58;4.35;;;2.83;;
75990;SDS011;64673;52.276;10.560;2022-11-15T10:59:29;3.90;;;2.80;;
75990;SDS011;64673;52.276;10.560;2022-11-15T11:01:56;5.70;;;2.92;;
75990;SDS011;64673;52.276;10.560;2022-11-15T11:04:22;4.28;;;2.35;;
75990;SDS011;64673;52.276;10.560;2022-11-15T11:06:58;3.10;;;2.10;;
75990;SDS011;64673;52.276;10.560;2022-11-15T11:11:57;4.22;;;2.38;;
75990;SDS011;64673;52.276;10.560;2022-11-15T11:14:27;3.67;;;2.25;;
75990;SDS011;64673;52.276;10.560;2022-11-15T11:25:26;4.78;;;2.00;;
75990;SDS011;64673;52.276;10.560;2022-11-15T11:30:50;4.65;;;2.25;;
75990;SDS011;64673;52.276;10.560;2022-11-15T11:33:42;2.80;;;1.75;;
75990;SDS011;64673;52.276;10.560;2022-11-15T11:36:35;3.95;;;2.30;;
75990;SDS011;64673;52.276;10.560;2022-11-15T11:47:30;3.90;;;2.50;;
75990;SDS011;64673;52.276;10.560;2022-11-15T11:50:41;4.68;;;2.35;;
75990;SDS011;64673;52.276;10.560;2022-11-15T11:55:28;4.95;;;2.40;;
75990;SDS011;64673;52.276;10.560;2022-11-15T12:00:23;5.70;;;2.45;;
75990;SDS011;64673;52.276;10.560;2022-11-15T12:03:08;4.25;;;2.40;;
75990;SDS011;64673;52.276;10.560;2022-11-15T12:13:45;4.10;;;2.47;;
75990;SDS011;64673;52.276;10.560;2022-11-15T12:18:54;5.97;;;2.47;;
75990;SDS011;64673;52.276;10.560;2022-11-15T12:21:31;4.97;;;2.50;;
75990;SDS011;64673;52.276;10.560;2022-11-15T12:24:09;4.75;;;2.53;;
75990;SDS011;64673;52.276;10.560;2022-11-15T12:26:41;6.85;;;2.72;;
75990;SDS011;64673;52.276;10.560;2022-11-15T12:30:00;4.75;;;2.75;;
75990;SDS011;64673;52.276;10.560;2022-11-15T12:32:24;6.22;;;2.47;;
75990;SDS011;64673;52.276;10.560;2022-11-15T12:34:53;5.38;;;2.75;;
75990;SDS011;64673;52.276;10.560;2022-11-15T12:40:16;5.00;;;2.67;;
75990;SDS011;64673;52.276;10.560;2022-11-15T12:45:48;4.97;;;2.58;;
75990;SDS011;64673;52.276;10.560;2022-11-15T12:51:15;4.18;;;2.28;;
75990;SDS011;64673;52.276;10.560;2022-11-15T12:53:34;5.93;;;2.33;;
75990;SDS011;64673;52.276;10.560;2022-11-15T12:58:50;4.07;;;2.40;;
75990;SDS011;64673;52.276;10.560;2022-11-15T13:06:46;5.13;;;3.00;;
75990;SDS011;64673;52.276;10.560;2022-11-15T13:11:54;3.80;;;2.13;;
75990;SDS011;64673;52.276;10.560;2022-11-15T13:25:18;4.95;;;2.30;;
75990;SDS011;64673;52.276;10.560;2022-11-15T13:30:40;4.95;;;2.30;;
75990;SDS011;64673;52.276;10.560;2022-11-15T13:35:56;6.55;;;2.20;;
75990;SDS011;64673;52.276;10.560;2022-11-15T13:40:49;5.03;;;2.73;;
75990;SDS011;64673;52.276;10.560;2022-11-15T13:43:34;8.25;;;2.35;;
75990;SDS011;64673;52.276;10.560;2022-11-15T13:48:41;5.15;;;2.35;;
75990;SDS011;64673;52.276;10.560;2022-11-15T13:51:19;4.38;;;2.40;;
75990;SDS011;64673;52.276;10.560;2022-11-15T13:56:16;5.13;;;2.42;;
75990;SDS011;64673;52.276;10.560;2022-11-15T13:58:45;3.42;;;2.15;;
75990;SDS011;64673;52.276;10.560;2022-11-15T14:01:15;6.40;;;2.15;;
75990;SDS011;64673;52.276;10.560;2022-11-15T14:03:51;7.10;;;2.00;;
75990;SDS011;64673;52.276;10.560;2022-11-15T14:06:20;4.85;;;2.08;;
75990;SDS011;64673;52.276;10.560;2022-11-15T14:11:28;5.07;;;2.38;;
75990;SDS011;64673;52.276;10.560;2022-11-15T14:14:13;4.07;;;2.03;;
75990;SDS011;64673;52.276;10.560;2022-11-15T14:19:06;4.07;;;2.03;;
75990;SDS011;64673;52.276;10.560;2022-11-15T14:21:35;4.60;;;2.50;;
75990;SDS011;64673;52.276;10.560;2022-11-15T14:24:13;3.80;;;2.17;;
75990;SDS011;64673;52.276;10.560;2022-11-15T14:26:43;4.32;;;2.50;;
75990;SDS011;64673;52.276;10.560;2022-11-15T14:29:25;6.57;;;2.67;;
75990;SDS011;64673;52.276;10.560;2022-11-15T14:32:05;3.90;;;2.20;;
75990;SDS011;64673;52.276;10.560;2022-11-15T14:34:39;4.47;;;2.40;;
75990;SDS011;64673;52.276;10.560;2022-11-15T14:37:04;4.90;;;2.85;;
75990;SDS011;64673;52.276;10.560;2022-11-15T14:39:29;5.88;;;2.40;;
75990;SDS011;64673;52.276;10.560;2022-11-15T14:41:55;6.18;;;2.85;;
75990;SDS011;64673;52.276;10.560;2022-11-15T14:44:20;4.05;;;2.38;;
75990;SDS011;64673;52.276;10.560;2022-11-15T14:46:46;5.00;;;2.60;;
75990;SDS011;64673;52.276;10.560;2022-11-15T14:49:13;5.47;;;2.80;;
75990;SDS011;64673;52.276;10.560;2022-11-15T14:51:39;4.38;;;2.40;;
75990;SDS011;64673;52.276;10.560;2022-11-15T14:54:04;7.13;;;2.92;;
75990;SDS011;64673;52.276;10.560;2022-11-15T14:56:30;4.18;;;2.55;;
75990;SDS011;64673;52.276;10.560;2022-11-15T14:58:55;5.18;;;2.50;;
75990;SDS011;64673;52.276;10.560;2022-11-15T15:01:22;4.95;;;2.95;;
75990;SDS011;64673;52.276;10.560;2022-11-15T15:03:50;3.70;;;2.40;;
75990;SDS011;64673;52.276;10.560;2022-11-15T15:06:17;5.20;;;2.28;;
75990;SDS011;64673;52.276;10.560;2022-11-15T15:08:43;3.25;;;2.35;;
75990;SDS011;64673;52.276;10.560;2022-11-15T15:11:13;5.18;;;2.92;;
75990;SDS011;64673;52.276;10.560;2022-11-15T15:13:40;3.85;;;2.45;;
75990;SDS011;64673;52.276;10.560;2022-11-15T15:16:06;5.38;;;2.58;;
75990;SDS011;64673;52.276;10.560;2022-11-15T15:18:31;5.38;;;2.58;;
75990;SDS011;64673;52.276;10.560;2022-11-15T15:20:57;5.43;;;2.70;;
75990;SDS011;64673;52.276;10.560;2022-11-15T15:23:31;7.50;;;2.85;;
75990;SDS011;64673;52.276;10.560;2022-11-15T15:25:57;3.65;;;2.25;;
75990;SDS011;64673;52.276;10.560;2022-11-15T15:28:23;5.07;;;2.60;;
75990;SDS011;64673;52.276;10.560;2022-11-15T15:30:49;3.88;;;2.53;;
75990;SDS011;64673;52.276;10.560;2022-11-15T15:33:14;4.60;;;2.40;;
75990;SDS011;64673;52.276;10.560;2022-11-15T15:35:40;5.13;;;2.17;;
75990;SDS011;64673;52.276;10.560;2022-11-15T15:38:06;4.90;;;2.40;;
75990;SDS011;64673;52.276;10.560;2022-11-15T15:42:59;3.93;;;2.17;;
75990;SDS011;64673;52.276;10.560;2022-11-15T15:45:25;5.75;;;2.88;;
75990;SDS011;64673;52.276;10.560;2022-11-15T15:47:50;6.90;;;2.90;;
75990;SDS011;64673;52.276;10.560;2022-11-15T15:50:21;4.35;;;2.55;;
75990;SDS011;64673;52.276;10.560;2022-11-15T15:52:49;6.68;;;3.00;;
75990;SDS011;64673;52.276;10.560;2022-11-15T15:55:16;6.90;;;2.83;;
75990;SDS011;64673;52.276;10.560;2022-11-15T15:57:42;5.72;;;2.97;;
75990;SDS011;64673;52.276;10.560;2022-11-15T16:00:08;4.95;;;2.72;;
75990;SDS011;64673;52.276;10.560;2022-11-15T16:02:34;5.20;;;2.83;;
75990;SDS011;64673;52.276;10.560;2022-11-15T16:04:59;6.30;;;3.30;;
75990;SDS011;64673;52.276;10.560;2022-11-15T16:07:25;7.68;;;3.25;;
75990;SDS011;64673;52.276;10.560;2022-11-15T16:09:50;5.38;;;3.25;;
75990;SDS011;64673;52.276;10.560;2022-11-15T16:12:28;4.72;;;2.88;;
75990;SDS011;64673;52.276;10.560;2022-11-15T16:14:58;6.75;;;3.40;;
75990;SDS011;64673;52.276;10.560;2022-11-15T16:17:25;6.32;;;2.80;;
75990;SDS011;64673;52.276;10.560;2022-11-15T16:19:53;5.47;;;2.85;;
75990;SDS011;64673;52.276;10.560;2022-11-15T16:22:19;5.65;;;3.10;;
75990;SDS011;64673;52.276;10.560;2022-11-15T16:24:44;5.18;;;2.90;;
75990;SDS011;64673;52.276;10.560;2022-11-15T16:27:17;5.55;;;3.45;;
75990;SDS011;64673;52.276;10.560;2022-11-15T16:29:44;6.40;;;3.22;;
75990;SDS011;64673;52.276;10.560;2022-11-15T16:32:11;5.43;;;3.67;;
75990;SDS011;64673;52.276;10.560;2022-11-15T16:34:37;8.57;;;4.60;;
75990;SDS011;64673;52.276;10.560;2022-11-15T16:37:02;9.05;;;5.00;;
75990;SDS011;64673;52.276;10.560;2022-11-15T16:39:28;10.95;;;4.95;;
75990;SDS011;64673;52.276;10.560;2022-11-15T16:41:55;9.35;;;5.18;;
75990;SDS011;64673;52.276;10.560;2022-11-15T16:44:21;8.98;;;4.68;;
75990;SDS011;64673;52.276;10.560;2022-11-15T16:46:48;9.40;;;4.75;;
75990;SDS011;64673;52.276;10.560;2022-11-15T16:49:16;9.50;;;5.28;;
75990;SDS011;64673;52.276;10.560;2022-11-15T16:51:44;9.65;;;4.63;;
75990;SDS011;64673;52.276;10.560;2022-11-15T16:54:10;7.72;;;4.78;;
75990;SDS011;64673;52.276;10.560;2022-11-15T16:56:36;7.38;;;4.32;;